This is the latest recevied weather packets stored in our database for station/object VK5TRM-14. If no packets are shown the sender has not sent any weather packets the latest 10 day(s).
| Time | Temp. | Humidity | Pressure | Rain* | Wind** | Luminosity | Snow |
|---|---|---|---|---|---|---|---|
| 1778176805 | 11.11° C | 76% | 1029 hPa | 0 mm | - | - | - |
| 1778175905 | 11.11° C | 76% | 1029 hPa | 0 mm | - | - | - |
| 1778175005 | 11.11° C | 75% | 1028.9 hPa | 0 mm | - | - | - |
| 1778174105 | 11.11° C | 75% | 1028.9 hPa | 0 mm | - | - | - |
| 1778173205 | 10.56° C | 80% | 1029 hPa | 0 mm | - | - | - |
| 1778172305 | 10.56° C | 80% | 1029 hPa | 0 mm | - | - | - |
| 1778171405 | 9.44° C | 83% | 1029 hPa | 0 mm | - | - | - |
| 1778170505 | 9.44° C | 83% | 1029 hPa | 0 mm | - | - | - |
| 1778169605 | 8.89° C | 86% | 1029.3 hPa | 0 mm | - | - | - |
| 1778168705 | 8.89° C | 86% | 1029.3 hPa | 0 mm | - | - | - |
| 1778167805 | 8.33° C | 87% | 1029.4 hPa | 0 mm | - | - | - |
| 1778166905 | 8.33° C | 87% | 1029.4 hPa | 0 mm | - | - | - |
| 1778166005 | 7.78° C | 87% | 1029.4 hPa | 0 mm | - | - | - |
| 1778165105 | 7.78° C | 87% | 1029.4 hPa | 0 mm | - | - | - |
| 1778164204 | 8.33° C | 86% | 1029.4 hPa | 0 mm | - | - | - |
| 1778163305 | 8.33° C | 86% | 1029.4 hPa | 0 mm | - | - | - |
| 1778162405 | 8.89° C | 82% | 1029.4 hPa | 0 mm | - | - | - |
| 1778161505 | 8.89° C | 82% | 1029.4 hPa | 0 mm | - | - | - |
| 1778160605 | 8.89° C | 80% | 1029.5 hPa | 0 mm | - | - | - |
| 1778159705 | 8.89° C | 80% | 1029.5 hPa | 0 mm | - | - | - |
| 1778158805 | 10° C | 75% | 1029.8 hPa | 0 mm | - | - | - |
| 1778157905 | 10° C | 75% | 1029.8 hPa | 0 mm | - | - | - |
| 1778157005 | 10.56° C | 72% | 1029.7 hPa | 0 mm | - | - | - |
| 1778156105 | 10.56° C | 72% | 1029.7 hPa | 0 mm | - | - | - |
| 1778155205 | 11.11° C | 70% | 1029.6 hPa | 0 mm | - | - | - |
* Rain since midnight (hover to see other rain measurements)
** Current wind speed in m/s (hover to see current wind gust speed)